sensor_id;sensor_type;location;lat;lon;timestamp;P1;durP1;ratioP1;P2;durP2;ratioP2
13090;SDS011;6611;52.604;13.438;2022-07-19T00:02:27;7.20;;;5.63;;
13090;SDS011;6611;52.604;13.438;2022-07-19T00:04:59;6.50;;;5.70;;
13090;SDS011;6611;52.604;13.438;2022-07-19T00:07:32;8.43;;;5.10;;
13090;SDS011;6611;52.604;13.438;2022-07-19T00:10:05;8.23;;;5.60;;
13090;SDS011;6611;52.604;13.438;2022-07-19T00:12:39;7.80;;;5.57;;
13090;SDS011;6611;52.604;13.438;2022-07-19T00:15:12;6.50;;;5.37;;
13090;SDS011;6611;52.604;13.438;2022-07-19T00:17:45;6.53;;;5.37;;
13090;SDS011;6611;52.604;13.438;2022-07-19T00:20:18;6.43;;;5.03;;
13090;SDS011;6611;52.604;13.438;2022-07-19T00:22:52;8.40;;;5.37;;
13090;SDS011;6611;52.604;13.438;2022-07-19T00:25:24;6.77;;;5.40;;
13090;SDS011;6611;52.604;13.438;2022-07-19T00:27:56;6.10;;;5.10;;
13090;SDS011;6611;52.604;13.438;2022-07-19T00:30:28;11.13;;;5.60;;
13090;SDS011;6611;52.604;13.438;2022-07-19T00:33:00;8.17;;;5.17;;
13090;SDS011;6611;52.604;13.438;2022-07-19T00:35:34;7.67;;;5.23;;
13090;SDS011;6611;52.604;13.438;2022-07-19T00:38:08;7.10;;;5.27;;
13090;SDS011;6611;52.604;13.438;2022-07-19T00:40:41;8.57;;;5.47;;
13090;SDS011;6611;52.604;13.438;2022-07-19T00:43:13;7.47;;;4.97;;
13090;SDS011;6611;52.604;13.438;2022-07-19T00:45:46;6.67;;;5.10;;
13090;SDS011;6611;52.604;13.438;2022-07-19T00:48:18;6.03;;;5.03;;
13090;SDS011;6611;52.604;13.438;2022-07-19T00:50:50;8.53;;;5.07;;
13090;SDS011;6611;52.604;13.438;2022-07-19T00:53:24;5.87;;;4.77;;
13090;SDS011;6611;52.604;13.438;2022-07-19T00:55:56;7.33;;;4.70;;
13090;SDS011;6611;52.604;13.438;2022-07-19T00:58:28;9.43;;;5.63;;
13090;SDS011;6611;52.604;13.438;2022-07-19T01:01:01;8.10;;;5.07;;
13090;SDS011;6611;52.604;13.438;2022-07-19T01:03:34;6.83;;;4.90;;
13090;SDS011;6611;52.604;13.438;2022-07-19T01:06:07;9.20;;;5.13;;
13090;SDS011;6611;52.604;13.438;2022-07-19T01:08:41;6.57;;;4.80;;
13090;SDS011;6611;52.604;13.438;2022-07-19T01:11:13;6.53;;;5.00;;
13090;SDS011;6611;52.604;13.438;2022-07-19T01:13:45;6.00;;;4.90;;
13090;SDS011;6611;52.604;13.438;2022-07-19T01:16:18;7.17;;;5.13;;
13090;SDS011;6611;52.604;13.438;2022-07-19T01:18:50;7.40;;;5.23;;
13090;SDS011;6611;52.604;13.438;2022-07-19T01:21:24;6.50;;;5.33;;
13090;SDS011;6611;52.604;13.438;2022-07-19T01:23:57;6.83;;;5.13;;
13090;SDS011;6611;52.604;13.438;2022-07-19T01:26:29;7.03;;;5.20;;
13090;SDS011;6611;52.604;13.438;2022-07-19T01:29:01;6.83;;;5.57;;
13090;SDS011;6611;52.604;13.438;2022-07-19T01:31:33;8.37;;;5.33;;
13090;SDS011;6611;52.604;13.438;2022-07-19T01:34:05;6.17;;;4.80;;
13090;SDS011;6611;52.604;13.438;2022-07-19T01:36:39;7.23;;;5.50;;
13090;SDS011;6611;52.604;13.438;2022-07-19T01:39:11;6.97;;;5.23;;
13090;SDS011;6611;52.604;13.438;2022-07-19T01:41:43;9.17;;;5.23;;
13090;SDS011;6611;52.604;13.438;2022-07-19T01:44:15;7.67;;;5.40;;
13090;SDS011;6611;52.604;13.438;2022-07-19T01:46:47;6.30;;;4.90;;
13090;SDS011;6611;52.604;13.438;2022-07-19T01:49:19;7.50;;;5.13;;
13090;SDS011;6611;52.604;13.438;2022-07-19T01:51:53;7.73;;;5.93;;
13090;SDS011;6611;52.604;13.438;2022-07-19T01:54:25;8.07;;;5.40;;
13090;SDS011;6611;52.604;13.438;2022-07-19T01:56:57;8.00;;;5.00;;
13090;SDS011;6611;52.604;13.438;2022-07-19T01:59:29;7.00;;;5.27;;
13090;SDS011;6611;52.604;13.438;2022-07-19T02:02:01;6.77;;;5.10;;
13090;SDS011;6611;52.604;13.438;2022-07-19T02:04:34;7.03;;;5.03;;
13090;SDS011;6611;52.604;13.438;2022-07-19T02:07:07;7.97;;;5.30;;
13090;SDS011;6611;52.604;13.438;2022-07-19T02:09:39;8.67;;;5.00;;
13090;SDS011;6611;52.604;13.438;2022-07-19T02:12:11;8.13;;;5.17;;
13090;SDS011;6611;52.604;13.438;2022-07-19T02:14:44;7.30;;;5.30;;
13090;SDS011;6611;52.604;13.438;2022-07-19T02:17:16;7.97;;;4.90;;
13090;SDS011;6611;52.604;13.438;2022-07-19T02:19:48;7.73;;;5.10;;
13090;SDS011;6611;52.604;13.438;2022-07-19T02:22:21;6.20;;;4.97;;
13090;SDS011;6611;52.604;13.438;2022-07-19T02:24:54;9.03;;;5.40;;
13090;SDS011;6611;52.604;13.438;2022-07-19T02:27:26;7.13;;;5.10;;
13090;SDS011;6611;52.604;13.438;2022-07-19T02:29:59;8.53;;;5.20;;
13090;SDS011;6611;52.604;13.438;2022-07-19T02:32:31;7.37;;;5.23;;
13090;SDS011;6611;52.604;13.438;2022-07-19T02:35:03;7.37;;;5.00;;
13090;SDS011;6611;52.604;13.438;2022-07-19T02:37:37;6.60;;;5.27;;
13090;SDS011;6611;52.604;13.438;2022-07-19T02:40:10;6.33;;;5.00;;
13090;SDS011;6611;52.604;13.438;2022-07-19T02:42:42;6.17;;;5.07;;
13090;SDS011;6611;52.604;13.438;2022-07-19T02:45:14;5.43;;;4.57;;
13090;SDS011;6611;52.604;13.438;2022-07-19T02:47:46;8.63;;;4.93;;
13090;SDS011;6611;52.604;13.438;2022-07-19T02:50:19;6.53;;;5.00;;
13090;SDS011;6611;52.604;13.438;2022-07-19T02:52:52;5.90;;;4.77;;
13090;SDS011;6611;52.604;13.438;2022-07-19T02:55:24;6.43;;;4.50;;
13090;SDS011;6611;52.604;13.438;2022-07-19T02:57:56;5.67;;;4.83;;
13090;SDS011;6611;52.604;13.438;2022-07-19T03:00:28;6.87;;;5.40;;
13090;SDS011;6611;52.604;13.438;2022-07-19T03:03:00;5.97;;;4.67;;
13090;SDS011;6611;52.604;13.438;2022-07-19T03:05:47;7.33;;;4.83;;
13090;SDS011;6611;52.604;13.438;2022-07-19T03:08:21;6.33;;;4.90;;
13090;SDS011;6611;52.604;13.438;2022-07-19T03:10:52;5.60;;;4.77;;
13090;SDS011;6611;52.604;13.438;2022-07-19T03:13:25;6.57;;;5.03;;
13090;SDS011;6611;52.604;13.438;2022-07-19T03:15:57;8.27;;;6.10;;
13090;SDS011;6611;52.604;13.438;2022-07-19T03:18:29;6.63;;;4.97;;
13090;SDS011;6611;52.604;13.438;2022-07-19T03:21:01;6.67;;;5.50;;
13090;SDS011;6611;52.604;13.438;2022-07-19T03:23:35;7.27;;;5.90;;
13090;SDS011;6611;52.604;13.438;2022-07-19T03:26:07;8.43;;;6.20;;
13090;SDS011;6611;52.604;13.438;2022-07-19T03:28:39;8.30;;;5.53;;
13090;SDS011;6611;52.604;13.438;2022-07-19T03:31:11;6.00;;;5.27;;
13090;SDS011;6611;52.604;13.438;2022-07-19T03:33:44;7.23;;;5.57;;
13090;SDS011;6611;52.604;13.438;2022-07-19T03:36:16;7.67;;;5.50;;
13090;SDS011;6611;52.604;13.438;2022-07-19T03:38:50;9.30;;;5.20;;
13090;SDS011;6611;52.604;13.438;2022-07-19T03:41:22;6.30;;;4.90;;
13090;SDS011;6611;52.604;13.438;2022-07-19T03:43:54;7.53;;;5.27;;
13090;SDS011;6611;52.604;13.438;2022-07-19T03:46:26;8.37;;;5.20;;
13090;SDS011;6611;52.604;13.438;2022-07-19T03:48:59;7.67;;;4.80;;
13090;SDS011;6611;52.604;13.438;2022-07-19T03:51:31;7.63;;;5.03;;
13090;SDS011;6611;52.604;13.438;2022-07-19T03:54:05;7.90;;;5.33;;
13090;SDS011;6611;52.604;13.438;2022-07-19T03:56:36;8.73;;;5.37;;
13090;SDS011;6611;52.604;13.438;2022-07-19T03:59:08;7.27;;;5.33;;
13090;SDS011;6611;52.604;13.438;2022-07-19T04:01:41;8.93;;;5.30;;
13090;SDS011;6611;52.604;13.438;2022-07-19T04:04:13;10.17;;;4.80;;
13090;SDS011;6611;52.604;13.438;2022-07-19T04:06:45;9.20;;;6.03;;
13090;SDS011;6611;52.604;13.438;2022-07-19T04:09:19;7.97;;;5.30;;
13090;SDS011;6611;52.604;13.438;2022-07-19T04:11:51;6.23;;;5.03;;
13090;SDS011;6611;52.604;13.438;2022-07-19T04:14:23;7.33;;;4.60;;
13090;SDS011;6611;52.604;13.438;2022-07-19T04:16:55;8.30;;;5.10;;
13090;SDS011;6611;52.604;13.438;2022-07-19T04:19:27;7.10;;;4.97;;
13090;SDS011;6611;52.604;13.438;2022-07-19T04:21:59;6.27;;;4.90;;
13090;SDS011;6611;52.604;13.438;2022-07-19T04:24:32;7.03;;;4.77;;
13090;SDS011;6611;52.604;13.438;2022-07-19T04:27:04;6.83;;;5.20;;
13090;SDS011;6611;52.604;13.438;2022-07-19T04:29:36;7.20;;;5.03;;
13090;SDS011;6611;52.604;13.438;2022-07-19T04:32:08;6.87;;;4.83;;
13090;SDS011;6611;52.604;13.438;2022-07-19T04:34:41;8.03;;;5.00;;
13090;SDS011;6611;52.604;13.438;2022-07-19T04:37:13;5.70;;;4.87;;
13090;SDS011;6611;52.604;13.438;2022-07-19T04:39:46;6.83;;;4.90;;
13090;SDS011;6611;52.604;13.438;2022-07-19T04:42:18;7.00;;;5.50;;
13090;SDS011;6611;52.604;13.438;2022-07-19T04:44:50;10.30;;;5.10;;
13090;SDS011;6611;52.604;13.438;2022-07-19T04:47:22;6.17;;;4.97;;
13090;SDS011;6611;52.604;13.438;2022-07-19T04:49:55;6.83;;;4.90;;
13090;SDS011;6611;52.604;13.438;2022-07-19T04:52:27;6.47;;;5.37;;
13090;SDS011;6611;52.604;13.438;2022-07-19T04:55:00;8.37;;;5.03;;
13090;SDS011;6611;52.604;13.438;2022-07-19T04:57:32;8.13;;;5.30;;
13090;SDS011;6611;52.604;13.438;2022-07-19T05:00:05;6.03;;;5.00;;
13090;SDS011;6611;52.604;13.438;2022-07-19T05:02:39;8.40;;;4.77;;
13090;SDS011;6611;52.604;13.438;2022-07-19T05:05:11;8.03;;;4.63;;
13090;SDS011;6611;52.604;13.438;2022-07-19T05:07:44;7.17;;;4.90;;
13090;SDS011;6611;52.604;13.438;2022-07-19T05:10:17;7.97;;;5.67;;
13090;SDS011;6611;52.604;13.438;2022-07-19T05:12:49;6.47;;;4.70;;
13090;SDS011;6611;52.604;13.438;2022-07-19T05:15:22;7.87;;;5.17;;
13090;SDS011;6611;52.604;13.438;2022-07-19T05:17:54;8.00;;;5.53;;
13090;SDS011;6611;52.604;13.438;2022-07-19T05:20:26;7.23;;;4.70;;
13090;SDS011;6611;52.604;13.438;2022-07-19T05:22:58;7.23;;;5.17;;
13090;SDS011;6611;52.604;13.438;2022-07-19T05:25:31;8.23;;;4.93;;
13090;SDS011;6611;52.604;13.438;2022-07-19T05:28:03;8.70;;;5.23;;
13090;SDS011;6611;52.604;13.438;2022-07-19T05:30:38;7.43;;;5.23;;
13090;SDS011;6611;52.604;13.438;2022-07-19T05:33:11;6.50;;;5.17;;
13090;SDS011;6611;52.604;13.438;2022-07-19T05:35:43;9.90;;;5.37;;
13090;SDS011;6611;52.604;13.438;2022-07-19T05:38:15;7.93;;;4.80;;
13090;SDS011;6611;52.604;13.438;2022-07-19T05:40:49;7.90;;;5.50;;
13090;SDS011;6611;52.604;13.438;2022-07-19T05:43:21;7.53;;;5.10;;
13090;SDS011;6611;52.604;13.438;2022-07-19T05:45:53;8.97;;;5.50;;
13090;SDS011;6611;52.604;13.438;2022-07-19T05:48:25;6.83;;;4.97;;
13090;SDS011;6611;52.604;13.438;2022-07-19T05:50:58;9.53;;;5.23;;
13090;SDS011;6611;52.604;13.438;2022-07-19T05:53:30;9.37;;;5.20;;
13090;SDS011;6611;52.604;13.438;2022-07-19T05:56:03;8.00;;;5.23;;
13090;SDS011;6611;52.604;13.438;2022-07-19T05:58:36;11.03;;;5.40;;
13090;SDS011;6611;52.604;13.438;2022-07-19T06:01:08;6.67;;;5.23;;
13090;SDS011;6611;52.604;13.438;2022-07-19T06:03:50;6.40;;;4.73;;
13090;SDS011;6611;52.604;13.438;2022-07-19T06:06:25;9.90;;;4.30;;
13090;SDS011;6611;52.604;13.438;2022-07-19T06:08:58;7.03;;;4.53;;
13090;SDS011;6611;52.604;13.438;2022-07-19T06:11:32;8.37;;;4.30;;
13090;SDS011;6611;52.604;13.438;2022-07-19T06:14:04;5.37;;;4.33;;
13090;SDS011;6611;52.604;13.438;2022-07-19T06:16:38;8.60;;;5.10;;
13090;SDS011;6611;52.604;13.438;2022-07-19T06:19:11;9.60;;;4.73;;
13090;SDS011;6611;52.604;13.438;2022-07-19T06:21:43;6.57;;;4.50;;
13090;SDS011;6611;52.604;13.438;2022-07-19T06:24:15;7.27;;;4.13;;
13090;SDS011;6611;52.604;13.438;2022-07-19T06:26:48;7.20;;;4.57;;
13090;SDS011;6611;52.604;13.438;2022-07-19T06:29:20;7.20;;;4.20;;
13090;SDS011;6611;52.604;13.438;2022-07-19T06:31:52;6.40;;;3.80;;
13090;SDS011;6611;52.604;13.438;2022-07-19T06:34:24;5.37;;;4.47;;
13090;SDS011;6611;52.604;13.438;2022-07-19T06:36:56;6.63;;;4.03;;
13090;SDS011;6611;52.604;13.438;2022-07-19T06:39:28;8.37;;;4.13;;
13090;SDS011;6611;52.604;13.438;2022-07-19T06:42:02;7.10;;;4.00;;
13090;SDS011;6611;52.604;13.438;2022-07-19T06:44:34;6.23;;;3.77;;
13090;SDS011;6611;52.604;13.438;2022-07-19T06:47:06;6.10;;;3.70;;
13090;SDS011;6611;52.604;13.438;2022-07-19T06:49:38;5.00;;;3.10;;
13090;SDS011;6611;52.604;13.438;2022-07-19T06:52:10;5.80;;;3.13;;
13090;SDS011;6611;52.604;13.438;2022-07-19T06:54:42;4.70;;;2.70;;
13090;SDS011;6611;52.604;13.438;2022-07-19T06:57:16;5.73;;;2.80;;
13090;SDS011;6611;52.604;13.438;2022-07-19T06:59:48;5.30;;;2.90;;
13090;SDS011;6611;52.604;13.438;2022-07-19T07:02:20;7.50;;;3.20;;
13090;SDS011;6611;52.604;13.438;2022-07-19T07:04:52;9.00;;;3.30;;
13090;SDS011;6611;52.604;13.438;2022-07-19T07:07:24;3.87;;;2.90;;
13090;SDS011;6611;52.604;13.438;2022-07-19T07:09:56;3.77;;;2.77;;
13090;SDS011;6611;52.604;13.438;2022-07-19T07:12:29;5.10;;;3.10;;
13090;SDS011;6611;52.604;13.438;2022-07-19T07:15:01;7.20;;;2.97;;
13090;SDS011;6611;52.604;13.438;2022-07-19T07:17:34;5.77;;;3.20;;
13090;SDS011;6611;52.604;13.438;2022-07-19T07:20:06;6.10;;;3.00;;
13090;SDS011;6611;52.604;13.438;2022-07-19T07:22:39;3.10;;;2.50;;
13090;SDS011;6611;52.604;13.438;2022-07-19T07:25:10;5.43;;;2.90;;
13090;SDS011;6611;52.604;13.438;2022-07-19T07:27:44;4.07;;;2.80;;
13090;SDS011;6611;52.604;13.438;2022-07-19T07:30:16;3.85;;;2.65;;
13090;SDS011;6611;52.604;13.438;2022-07-19T07:32:48;6.90;;;3.08;;
13090;SDS011;6611;52.604;13.438;2022-07-19T07:35:20;7.35;;;2.67;;
13090;SDS011;6611;52.604;13.438;2022-07-19T07:37:52;3.50;;;2.78;;
13090;SDS011;6611;52.604;13.438;2022-07-19T07:40:24;6.85;;;3.00;;
13090;SDS011;6611;52.604;13.438;2022-07-19T07:42:58;4.18;;;2.50;;
13090;SDS011;6611;52.604;13.438;2022-07-19T07:45:32;4.65;;;2.83;;
13090;SDS011;6611;52.604;13.438;2022-07-19T07:48:04;9.05;;;3.30;;
13090;SDS011;6611;52.604;13.438;2022-07-19T07:50:37;4.55;;;2.40;;
13090;SDS011;6611;52.604;13.438;2022-07-19T07:53:09;5.13;;;2.85;;
13090;SDS011;6611;52.604;13.438;2022-07-19T07:55:41;4.32;;;2.80;;
13090;SDS011;6611;52.604;13.438;2022-07-19T07:58:14;6.25;;;2.47;;
13090;SDS011;6611;52.604;13.438;2022-07-19T08:00:46;6.78;;;2.60;;
13090;SDS011;6611;52.604;13.438;2022-07-19T08:03:18;8.68;;;2.85;;
13090;SDS011;6611;52.604;13.438;2022-07-19T08:05:50;5.25;;;2.60;;
13090;SDS011;6611;52.604;13.438;2022-07-19T08:08:23;4.78;;;2.50;;
13090;SDS011;6611;52.604;13.438;2022-07-19T08:10:56;6.57;;;2.60;;
13090;SDS011;6611;52.604;13.438;2022-07-19T08:13:30;4.15;;;2.53;;
13090;SDS011;6611;52.604;13.438;2022-07-19T08:16:02;4.55;;;2.53;;
13090;SDS011;6611;52.604;13.438;2022-07-19T08:18:34;5.05;;;3.03;;
13090;SDS011;6611;52.604;13.438;2022-07-19T08:21:06;6.70;;;2.70;;
13090;SDS011;6611;52.604;13.438;2022-07-19T08:23:38;4.07;;;2.85;;
13090;SDS011;6611;52.604;13.438;2022-07-19T08:26:12;8.63;;;2.97;;
13090;SDS011;6611;52.604;13.438;2022-07-19T08:28:45;4.90;;;2.72;;
13090;SDS011;6611;52.604;13.438;2022-07-19T08:31:17;6.18;;;2.75;;
13090;SDS011;6611;52.604;13.438;2022-07-19T08:33:50;5.32;;;2.70;;
13090;SDS011;6611;52.604;13.438;2022-07-19T08:36:22;6.88;;;2.83;;
13090;SDS011;6611;52.604;13.438;2022-07-19T08:38:54;4.40;;;2.60;;
13090;SDS011;6611;52.604;13.438;2022-07-19T08:41:26;4.40;;;2.97;;
13090;SDS011;6611;52.604;13.438;2022-07-19T08:44:00;3.85;;;2.65;;
13090;SDS011;6611;52.604;13.438;2022-07-19T08:46:33;3.92;;;2.83;;
13090;SDS011;6611;52.604;13.438;2022-07-19T08:49:05;3.53;;;2.67;;
13090;SDS011;6611;52.604;13.438;2022-07-19T08:51:38;7.05;;;2.72;;
13090;SDS011;6611;52.604;13.438;2022-07-19T08:54:12;5.80;;;2.65;;
13090;SDS011;6611;52.604;13.438;2022-07-19T08:56:44;3.97;;;2.83;;
13090;SDS011;6611;52.604;13.438;2022-07-19T08:59:35;5.10;;;2.58;;
13090;SDS011;6611;52.604;13.438;2022-07-19T09:02:07;5.32;;;2.45;;
13090;SDS011;6611;52.604;13.438;2022-07-19T09:04:39;5.43;;;2.92;;
13090;SDS011;6611;52.604;13.438;2022-07-19T09:07:12;3.38;;;2.25;;
13090;SDS011;6611;52.604;13.438;2022-07-19T09:09:50;8.90;;;2.85;;
13090;SDS011;6611;52.604;13.438;2022-07-19T09:12:21;4.38;;;2.45;;
13090;SDS011;6611;52.604;13.438;2022-07-19T09:14:55;8.05;;;2.80;;
13090;SDS011;6611;52.604;13.438;2022-07-19T09:17:28;6.82;;;3.20;;
13090;SDS011;6611;52.604;13.438;2022-07-19T09:20:00;5.78;;;2.67;;
13090;SDS011;6611;52.604;13.438;2022-07-19T09:22:32;3.70;;;2.33;;
13090;SDS011;6611;52.604;13.438;2022-07-19T09:25:04;5.40;;;2.72;;
13090;SDS011;6611;52.604;13.438;2022-07-19T09:27:36;2.80;;;2.08;;
13090;SDS011;6611;52.604;13.438;2022-07-19T09:30:10;4.15;;;2.85;;
13090;SDS011;6611;52.604;13.438;2022-07-19T09:32:42;5.53;;;2.83;;
13090;SDS011;6611;52.604;13.438;2022-07-19T09:35:14;5.75;;;2.53;;
13090;SDS011;6611;52.604;13.438;2022-07-19T09:37:46;4.30;;;2.80;;
13090;SDS011;6611;52.604;13.438;2022-07-19T09:40:18;5.50;;;2.60;;
13090;SDS011;6611;52.604;13.438;2022-07-19T09:42:50;4.75;;;2.70;;
13090;SDS011;6611;52.604;13.438;2022-07-19T09:45:25;4.75;;;2.83;;
13090;SDS011;6611;52.604;13.438;2022-07-19T09:47:58;4.60;;;2.47;;
13090;SDS011;6611;52.604;13.438;2022-07-19T09:50:33;6.15;;;2.60;;
13090;SDS011;6611;52.604;13.438;2022-07-19T09:53:05;5.43;;;2.72;;
13090;SDS011;6611;52.604;13.438;2022-07-19T09:55:37;4.72;;;2.75;;
13090;SDS011;6611;52.604;13.438;2022-07-19T09:58:10;5.10;;;2.30;;
13090;SDS011;6611;52.604;13.438;2022-07-19T10:00:43;4.47;;;2.50;;
13090;SDS011;6611;52.604;13.438;2022-07-19T10:03:16;4.07;;;2.58;;
13090;SDS011;6611;52.604;13.438;2022-07-19T10:05:48;3.33;;;2.40;;
13090;SDS011;6611;52.604;13.438;2022-07-19T10:08:20;4.40;;;2.70;;
13090;SDS011;6611;52.604;13.438;2022-07-19T10:10:52;2.88;;;2.13;;
13090;SDS011;6611;52.604;13.438;2022-07-19T10:13:25;3.45;;;2.13;;
13090;SDS011;6611;52.604;13.438;2022-07-19T10:15:59;5.10;;;2.60;;
13090;SDS011;6611;52.604;13.438;2022-07-19T10:18:37;2.35;;;2.10;;
13090;SDS011;6611;52.604;13.438;2022-07-19T10:21:22;2.85;;;2.55;;
13090;SDS011;6611;52.604;13.438;2022-07-19T10:23:54;2.22;;;1.88;;
13090;SDS011;6611;52.604;13.438;2022-07-19T10:26:33;2.85;;;1.90;;
13090;SDS011;6611;52.604;13.438;2022-07-19T10:29:08;3.70;;;2.03;;
13090;SDS011;6611;52.604;13.438;2022-07-19T10:31:45;2.33;;;2.13;;
13090;SDS011;6611;52.604;13.438;2022-07-19T10:34:33;4.13;;;2.30;;
13090;SDS011;6611;52.604;13.438;2022-07-19T10:37:06;3.95;;;2.35;;
13090;SDS011;6611;52.604;13.438;2022-07-19T10:39:38;2.75;;;2.55;;
13090;SDS011;6611;52.604;13.438;2022-07-19T10:42:15;3.22;;;2.25;;
13090;SDS011;6611;52.604;13.438;2022-07-19T10:48:02;2.92;;;2.03;;
13090;SDS011;6611;52.604;13.438;2022-07-19T10:50:56;3.30;;;2.30;;
13090;SDS011;6611;52.604;13.438;2022-07-19T10:56:41;4.65;;;2.53;;
13090;SDS011;6611;52.604;13.438;2022-07-19T10:59:34;2.47;;;2.20;;
13090;SDS011;6611;52.604;13.438;2022-07-19T11:02:22;3.42;;;2.13;;
13090;SDS011;6611;52.604;13.438;2022-07-19T11:04:56;4.30;;;1.98;;
13090;SDS011;6611;52.604;13.438;2022-07-19T11:07:28;4.32;;;2.15;;
13090;SDS011;6611;52.604;13.438;2022-07-19T11:10:00;2.38;;;1.75;;
13090;SDS011;6611;52.604;13.438;2022-07-19T11:12:34;2.08;;;1.90;;
13090;SDS011;6611;52.604;13.438;2022-07-19T11:15:07;2.58;;;2.28;;
13090;SDS011;6611;52.604;13.438;2022-07-19T11:17:50;2.30;;;2.00;;
13090;SDS011;6611;52.604;13.438;2022-07-19T11:20:25;4.32;;;2.20;;
13090;SDS011;6611;52.604;13.438;2022-07-19T11:22:58;2.67;;;2.22;;
13090;SDS011;6611;52.604;13.438;2022-07-19T11:25:32;3.65;;;2.30;;
13090;SDS011;6611;52.604;13.438;2022-07-19T11:28:06;3.65;;;2.20;;
13090;SDS011;6611;52.604;13.438;2022-07-19T11:30:38;3.13;;;2.30;;
13090;SDS011;6611;52.604;13.438;2022-07-19T11:33:11;4.05;;;2.25;;
13090;SDS011;6611;52.604;13.438;2022-07-19T11:35:56;3.80;;;2.20;;
13090;SDS011;6611;52.604;13.438;2022-07-19T11:38:36;2.45;;;2.25;;
13090;SDS011;6611;52.604;13.438;2022-07-19T11:41:13;4.13;;;2.15;;
13090;SDS011;6611;52.604;13.438;2022-07-19T11:43:50;3.97;;;2.40;;
13090;SDS011;6611;52.604;13.438;2022-07-19T11:46:24;3.33;;;2.40;;
13090;SDS011;6611;52.604;13.438;2022-07-19T11:48:57;5.25;;;2.22;;
13090;SDS011;6611;52.604;13.438;2022-07-19T11:51:32;2.40;;;2.20;;
13090;SDS011;6611;52.604;13.438;2022-07-19T11:54:05;5.30;;;2.45;;
13090;SDS011;6611;52.604;13.438;2022-07-19T11:56:38;5.65;;;2.65;;
13090;SDS011;6611;52.604;13.438;2022-07-19T11:59:10;3.65;;;2.60;;
13090;SDS011;6611;52.604;13.438;2022-07-19T12:01:42;4.43;;;2.78;;
13090;SDS011;6611;52.604;13.438;2022-07-19T12:04:15;3.15;;;2.28;;
13090;SDS011;6611;52.604;13.438;2022-07-19T12:06:49;2.90;;;2.50;;
13090;SDS011;6611;52.604;13.438;2022-07-19T12:09:25;3.75;;;2.50;;
13090;SDS011;6611;52.604;13.438;2022-07-19T12:11:58;4.72;;;2.80;;
13090;SDS011;6611;52.604;13.438;2022-07-19T12:14:32;5.10;;;2.58;;
13090;SDS011;6611;52.604;13.438;2022-07-19T12:17:11;2.63;;;2.40;;
13090;SDS011;6611;52.604;13.438;2022-07-19T12:19:44;3.60;;;2.80;;
13090;SDS011;6611;52.604;13.438;2022-07-19T12:22:28;4.47;;;2.95;;
13090;SDS011;6611;52.604;13.438;2022-07-19T12:25:04;3.08;;;2.42;;
13090;SDS011;6611;52.604;13.438;2022-07-19T12:27:37;6.65;;;3.10;;
13090;SDS011;6611;52.604;13.438;2022-07-19T12:30:17;4.25;;;3.10;;
13090;SDS011;6611;52.604;13.438;2022-07-19T12:32:50;4.38;;;2.85;;
13090;SDS011;6611;52.604;13.438;2022-07-19T12:35:22;3.00;;;2.70;;
13090;SDS011;6611;52.604;13.438;2022-07-19T12:38:02;4.05;;;2.92;;
13090;SDS011;6611;52.604;13.438;2022-07-19T12:40:35;4.22;;;2.55;;
13090;SDS011;6611;52.604;13.438;2022-07-19T12:43:07;3.30;;;2.67;;
13090;SDS011;6611;52.604;13.438;2022-07-19T12:45:43;3.85;;;2.80;;
13090;SDS011;6611;52.604;13.438;2022-07-19T12:48:16;3.90;;;2.60;;
13090;SDS011;6611;52.604;13.438;2022-07-19T12:50:49;3.38;;;2.83;;
13090;SDS011;6611;52.604;13.438;2022-07-19T12:53:23;4.35;;;2.92;;
13090;SDS011;6611;52.604;13.438;2022-07-19T12:55:55;3.10;;;2.80;;
13090;SDS011;6611;52.604;13.438;2022-07-19T12:58:27;4.45;;;2.90;;
13090;SDS011;6611;52.604;13.438;2022-07-19T13:01:17;4.63;;;3.08;;
13090;SDS011;6611;52.604;13.438;2022-07-19T13:03:50;5.43;;;3.03;;
13090;SDS011;6611;52.604;13.438;2022-07-19T13:06:22;3.80;;;3.03;;
13090;SDS011;6611;52.604;13.438;2022-07-19T13:08:55;4.10;;;3.30;;
13090;SDS011;6611;52.604;13.438;2022-07-19T13:11:27;4.32;;;3.22;;
13090;SDS011;6611;52.604;13.438;2022-07-19T13:13:59;3.90;;;3.30;;
13090;SDS011;6611;52.604;13.438;2022-07-19T13:16:31;4.38;;;3.10;;
13090;SDS011;6611;52.604;13.438;2022-07-19T13:19:03;7.72;;;3.25;;
13090;SDS011;6611;52.604;13.438;2022-07-19T13:21:35;6.10;;;3.20;;
13090;SDS011;6611;52.604;13.438;2022-07-19T13:24:08;5.70;;;3.17;;
13090;SDS011;6611;52.604;13.438;2022-07-19T13:26:40;4.00;;;2.85;;
13090;SDS011;6611;52.604;13.438;2022-07-19T13:29:12;4.68;;;2.80;;
13090;SDS011;6611;52.604;13.438;2022-07-19T13:31:44;5.38;;;3.17;;
13090;SDS011;6611;52.604;13.438;2022-07-19T13:34:17;3.55;;;2.90;;
13090;SDS011;6611;52.604;13.438;2022-07-19T13:36:49;4.22;;;2.70;;
13090;SDS011;6611;52.604;13.438;2022-07-19T13:39:22;8.13;;;3.08;;
13090;SDS011;6611;52.604;13.438;2022-07-19T13:41:54;3.80;;;2.63;;
13090;SDS011;6611;52.604;13.438;2022-07-19T13:44:26;4.68;;;2.60;;
13090;SDS011;6611;52.604;13.438;2022-07-19T13:46:58;4.93;;;3.10;;
13090;SDS011;6611;52.604;13.438;2022-07-19T13:49:30;5.55;;;4.30;;
13090;SDS011;6611;52.604;13.438;2022-07-19T13:52:02;6.13;;;3.28;;
13090;SDS011;6611;52.604;13.438;2022-07-19T13:54:36;4.60;;;2.70;;
13090;SDS011;6611;52.604;13.438;2022-07-19T13:57:08;3.22;;;2.83;;
13090;SDS011;6611;52.604;13.438;2022-07-19T13:59:40;3.28;;;2.72;;
13090;SDS011;6611;52.604;13.438;2022-07-19T14:02:12;3.70;;;2.72;;
13090;SDS011;6611;52.604;13.438;2022-07-19T14:04:44;4.18;;;2.35;;
13090;SDS011;6611;52.604;13.438;2022-07-19T14:07:16;3.80;;;2.60;;
13090;SDS011;6611;52.604;13.438;2022-07-19T14:09:50;3.75;;;2.50;;
13090;SDS011;6611;52.604;13.438;2022-07-19T14:12:21;3.10;;;2.42;;
13090;SDS011;6611;52.604;13.438;2022-07-19T14:14:53;3.47;;;2.55;;
13090;SDS011;6611;52.604;13.438;2022-07-19T14:17:25;4.20;;;2.38;;
13090;SDS011;6611;52.604;13.438;2022-07-19T14:19:58;3.42;;;2.70;;
13090;SDS011;6611;52.604;13.438;2022-07-19T14:22:30;9.10;;;2.70;;
13090;SDS011;6611;52.604;13.438;2022-07-19T14:25:04;3.42;;;2.28;;
13090;SDS011;6611;52.604;13.438;2022-07-19T14:27:37;2.88;;;2.50;;
13090;SDS011;6611;52.604;13.438;2022-07-19T14:30:09;4.05;;;2.65;;
13090;SDS011;6611;52.604;13.438;2022-07-19T14:32:41;6.00;;;2.58;;
13090;SDS011;6611;52.604;13.438;2022-07-19T14:35:13;3.13;;;2.17;;
13090;SDS011;6611;52.604;13.438;2022-07-19T14:37:46;4.03;;;2.55;;
13090;SDS011;6611;52.604;13.438;2022-07-19T14:40:20;5.05;;;2.70;;
13090;SDS011;6611;52.604;13.438;2022-07-19T14:42:52;5.82;;;3.78;;
13090;SDS011;6611;52.604;13.438;2022-07-19T14:45:24;4.18;;;2.65;;
13090;SDS011;6611;52.604;13.438;2022-07-19T14:47:56;3.65;;;2.40;;
13090;SDS011;6611;52.604;13.438;2022-07-19T14:50:28;3.80;;;2.70;;
13090;SDS011;6611;52.604;13.438;2022-07-19T14:53:01;4.43;;;2.80;;
13090;SDS011;6611;52.604;13.438;2022-07-19T14:55:34;3.72;;;2.75;;
13090;SDS011;6611;52.604;13.438;2022-07-19T14:58:06;5.32;;;2.70;;
13090;SDS011;6611;52.604;13.438;2022-07-19T15:00:38;3.50;;;2.40;;
13090;SDS011;6611;52.604;13.438;2022-07-19T15:03:10;3.38;;;2.25;;
13090;SDS011;6611;52.604;13.438;2022-07-19T15:05:42;5.15;;;2.60;;
13090;SDS011;6611;52.604;13.438;2022-07-19T15:08:14;3.10;;;2.20;;
13090;SDS011;6611;52.604;13.438;2022-07-19T15:10:47;3.72;;;2.55;;
13090;SDS011;6611;52.604;13.438;2022-07-19T15:13:19;3.80;;;2.25;;
13090;SDS011;6611;52.604;13.438;2022-07-19T15:15:51;2.80;;;2.45;;
13090;SDS011;6611;52.604;13.438;2022-07-19T15:18:23;3.97;;;2.40;;
13090;SDS011;6611;52.604;13.438;2022-07-19T15:20:56;3.75;;;2.45;;
13090;SDS011;6611;52.604;13.438;2022-07-19T15:23:28;2.83;;;2.50;;
13090;SDS011;6611;52.604;13.438;2022-07-19T15:26:03;3.53;;;2.70;;
13090;SDS011;6611;52.604;13.438;2022-07-19T15:28:35;4.05;;;2.65;;
13090;SDS011;6611;52.604;13.438;2022-07-19T15:31:08;3.95;;;2.58;;